Welkom op de website van Weerstation Hoek van Holland.

Onweer radar Meer informatie blitzortung!


Regen radar Meer informatie rain snow radar



METAR rapporten vliegvelden

   
EHRD - Rotterdam International Airport, NL
Afstand tot: Oost 31 km
Gewijzigd: 19-08-2019 20:55
Gedeeltelijk bewolkt  
Gedeeltelijk bewolkt  
   Wind: WZW 25.9 km/h
Wind: WZW 25.9 km/h
Temperatuur: 18°C
Dauwpunt: 10°C
Vochtigheid: 60%
Barometer: 1017 hPa
Bewolking: Partly Cloudy
Zicht: meer dan 10 km
Bewolking: Gedeeltelijk bewolkt ft
EHRD 191855Z AUTO 24014KT 220V280 9999 NSC 18/10 Q1017 NOSIG
EHAM - Amsterdam Schiphol, NL
Afstand tot: Noord 17 km
Gewijzigd: 19-08-2019 20:55
Light Showers, Regen, Licht bewolkt  
Light Showers, Regen, Licht bewolkt  
   Wind: WZW 27.8 km/h
Wind: WZW 27.8 km/h
Temperatuur: 18°C
Dauwpunt: 13°C
Vochtigheid: 73%
Barometer: 1016 hPa
Bewolking: Few Clouds
Zicht: meer dan 10 km
Bewolking: Licht bewolkt 2100 ft
EHAM 191855Z 24015KT 9999 -SHRA FEW021TCU 18/13 Q1016 NOSIG
EBAW - Antwerpen/Deurne, B
Afstand tot: Zuid 138 km
Gewijzigd: 19-08-2019 20:50
Helder  
Helder  
   Wind: WZW 14.8 km/h
Wind: WZW 14.8 km/h
Temperatuur: 19°C
Dauwpunt: 9°C
Vochtigheid: 52%
Barometer: 1018 hPa
Zicht: meer dan 10 km
Bewolking: Helder ft
EBAW 191850Z 24008KT CAVOK 19/09 Q1018 NOSIG
EHEH - Eindhoven, NL
Afstand tot: OZO 140 km
Gewijzigd: 19-08-2019 20:55
Helder  
Helder  
   Wind: ZZW 11.1 km/h
Wind: ZZW 11.1 km/h
Temperatuur: 17°C
Dauwpunt: 10°C
Vochtigheid: 64%
Barometer: 1017 hPa
Bewolking: Clear
Zicht: meer dan 10 km
Bewolking: Helder ft
EHEH 191855Z AUTO 21006KT 160V270 9999 NCD 17/10 Q1017 BLU 21006KT 9999 FEW045
  

Script ontwikkeld door  Saratoga-weather.org Aangepast voor de template door  Weerstation Leuven

Apparatuur in gebruik:

Weerstation
Davis VP2

Weerprogramma
Meteobridge

Weercomputer
meteobridge met meteostick

Webleverancier
Strato

Davis VP2

Meteobridge

meteobridge met meteostick

Strato